sensor_id;sensor_type;location;lat;lon;timestamp;P1;P2;P0
77413;PMS7003;66486;49.992;19.164;2023-03-31T00:01:37;27.40;27.40;15.00
77413;PMS7003;66486;49.992;19.164;2023-03-31T00:04:07;32.20;29.20;18.80
77413;PMS7003;66486;49.992;19.164;2023-03-31T00:06:35;28.00;28.00;18.80
77413;PMS7003;66486;49.992;19.164;2023-03-31T00:09:06;29.80;28.80;18.20
77413;PMS7003;66486;49.992;19.164;2023-03-31T00:11:35;29.20;28.00;17.80
77413;PMS7003;66486;49.992;19.164;2023-03-31T00:14:02;19.20;18.20;10.80
77413;PMS7003;66486;49.992;19.164;2023-03-31T00:16:32;24.80;24.00;14.80
77413;PMS7003;66486;49.992;19.164;2023-03-31T00:19:01;22.40;21.40;15.80
77413;PMS7003;66486;49.992;19.164;2023-03-31T00:21:28;29.20;27.00;18.40
77413;PMS7003;66486;49.992;19.164;2023-03-31T00:23:55;26.20;26.20;14.60
77413;PMS7003;66486;49.992;19.164;2023-03-31T00:26:24;29.60;27.80;18.60
77413;PMS7003;66486;49.992;19.164;2023-03-31T00:28:52;32.20;30.20;19.00
77413;PMS7003;66486;49.992;19.164;2023-03-31T00:31:18;24.60;22.20;15.40
77413;PMS7003;66486;49.992;19.164;2023-03-31T00:33:45;23.60;22.80;15.00
77413;PMS7003;66486;49.992;19.164;2023-03-31T00:36:11;24.80;24.00;15.80
77413;PMS7003;66486;49.992;19.164;2023-03-31T00:38:37;32.50;31.00;17.00
77413;PMS7003;66486;49.992;19.164;2023-03-31T00:41:03;27.40;24.60;18.00
77413;PMS7003;66486;49.992;19.164;2023-03-31T00:43:35;27.60;24.80;16.40
77413;PMS7003;66486;49.992;19.164;2023-03-31T00:46:10;26.40;25.40;18.20
77413;PMS7003;66486;49.992;19.164;2023-03-31T00:48:50;22.40;22.40;15.60
77413;PMS7003;66486;49.992;19.164;2023-03-31T00:51:22;29.60;25.40;16.40
77413;PMS7003;66486;49.992;19.164;2023-03-31T00:53:57;29.40;27.60;16.80
77413;PMS7003;66486;49.992;19.164;2023-03-31T00:56:31;25.00;25.00;18.80
77413;PMS7003;66486;49.992;19.164;2023-03-31T00:59:02;23.20;23.00;14.40
77413;PMS7003;66486;49.992;19.164;2023-03-31T01:01:33;26.20;25.40;16.00
77413;PMS7003;66486;49.992;19.164;2023-03-31T01:04:00;24.40;23.60;14.20
77413;PMS7003;66486;49.992;19.164;2023-03-31T01:06:28;13.00;13.00;9.40
77413;PMS7003;66486;49.992;19.164;2023-03-31T01:08:57;28.60;26.80;18.40
77413;PMS7003;66486;49.992;19.164;2023-03-31T01:11:23;28.00;28.00;18.00
77413;PMS7003;66486;49.992;19.164;2023-03-31T01:13:52;26.60;26.40;18.40
77413;PMS7003;66486;49.992;19.164;2023-03-31T01:16:21;29.20;28.60;18.40
77413;PMS7003;66486;49.992;19.164;2023-03-31T01:18:47;22.00;21.20;14.60
77413;PMS7003;66486;49.992;19.164;2023-03-31T01:27:06;22.00;21.80;15.40
77413;PMS7003;66486;49.992;19.164;2023-03-31T01:44:15;20.00;20.00;15.20
77413;PMS7003;66486;49.992;19.164;2023-03-31T01:52:24;21.80;19.00;12.00
77413;PMS7003;66486;49.992;19.164;2023-03-31T02:00:28;20.20;17.20;15.00
77413;PMS7003;66486;49.992;19.164;2023-03-31T02:02:59;16.80;16.40;11.20
77413;PMS7003;66486;49.992;19.164;2023-03-31T02:05:31;16.80;16.00;13.40
77413;PMS7003;66486;49.992;19.164;2023-03-31T02:08:12;20.60;19.40;13.80
77413;PMS7003;66486;49.992;19.164;2023-03-31T02:10:45;26.20;26.20;15.00
77413;PMS7003;66486;49.992;19.164;2023-03-31T02:13:12;30.20;25.80;15.40
77413;PMS7003;66486;49.992;19.164;2023-03-31T02:15:42;11.80;11.80;7.00
77413;PMS7003;66486;49.992;19.164;2023-03-31T02:18:12;14.20;14.20;9.00
77413;PMS7003;66486;49.992;19.164;2023-03-31T02:20:43;12.40;12.40;9.00
77413;PMS7003;66486;49.992;19.164;2023-03-31T02:23:13;12.60;11.20;6.00
77413;PMS7003;66486;49.992;19.164;2023-03-31T02:25:50;18.80;17.20;11.80
77413;PMS7003;66486;49.992;19.164;2023-03-31T02:28:20;17.20;17.00;13.20
77413;PMS7003;66486;49.992;19.164;2023-03-31T02:33:40;14.60;14.60;9.00
77413;PMS7003;66486;49.992;19.164;2023-03-31T02:36:06;11.40;9.00;7.00
77413;PMS7003;66486;49.992;19.164;2023-03-31T02:38:34;13.40;13.40;9.00
77413;PMS7003;66486;49.992;19.164;2023-03-31T02:41:05;14.60;13.40;9.00
77413;PMS7003;66486;49.992;19.164;2023-03-31T02:43:32;11.60;11.60;9.00
77413;PMS7003;66486;49.992;19.164;2023-03-31T02:45:58;16.40;15.40;10.00
77413;PMS7003;66486;49.992;19.164;2023-03-31T02:48:25;9.25;9.25;6.00
77413;PMS7003;66486;49.992;19.164;2023-03-31T02:56:14;9.00;9.00;4.00
77413;PMS7003;66486;49.992;19.164;2023-03-31T03:04:19;4.40;4.00;3.00
77413;PMS7003;66486;49.992;19.164;2023-03-31T03:09:56;6.20;6.20;5.60
77413;PMS7003;66486;49.992;19.164;2023-03-31T03:12:31;11.80;10.80;7.80
77413;PMS7003;66486;49.992;19.164;2023-03-31T03:17:41;12.40;12.40;8.60
77413;PMS7003;66486;49.992;19.164;2023-03-31T03:20:10;5.00;3.80;1.00
77413;PMS7003;66486;49.992;19.164;2023-03-31T03:22:38;14.20;11.60;8.20
77413;PMS7003;66486;49.992;19.164;2023-03-31T03:25:09;9.80;9.00;6.40
77413;PMS7003;66486;49.992;19.164;2023-03-31T03:27:37;13.00;12.80;9.00
77413;PMS7003;66486;49.992;19.164;2023-03-31T03:30:04;4.40;4.40;1.80
77413;PMS7003;66486;49.992;19.164;2023-03-31T03:32:33;15.80;14.40;11.20
77413;PMS7003;66486;49.992;19.164;2023-03-31T03:35:00;13.00;13.00;7.00
77413;PMS7003;66486;49.992;19.164;2023-03-31T03:37:28;15.60;15.60;9.80
77413;PMS7003;66486;49.992;19.164;2023-03-31T03:39:54;7.80;7.00;6.40
77413;PMS7003;66486;49.992;19.164;2023-03-31T03:42:20;14.80;14.00;9.40
77413;PMS7003;66486;49.992;19.164;2023-03-31T03:44:46;13.00;13.00;10.00
77413;PMS7003;66486;49.992;19.164;2023-03-31T03:47:12;15.00;12.80;7.00
77413;PMS7003;66486;49.992;19.164;2023-03-31T03:49:38;17.20;17.20;10.00
77413;PMS7003;66486;49.992;19.164;2023-03-31T03:52:05;11.60;11.60;8.20
77413;PMS7003;66486;49.992;19.164;2023-03-31T03:54:31;9.80;9.40;7.00
77413;PMS7003;66486;49.992;19.164;2023-03-31T03:56:57;16.60;15.80;10.80
77413;PMS7003;66486;49.992;19.164;2023-03-31T03:59:23;43.20;42.40;27.80
77413;PMS7003;66486;49.992;19.164;2023-03-31T04:01:50;29.00;27.20;21.20
77413;PMS7003;66486;49.992;19.164;2023-03-31T04:04:17;13.40;13.40;10.80
77413;PMS7003;66486;49.992;19.164;2023-03-31T04:06:43;11.80;11.20;9.20
77413;PMS7003;66486;49.992;19.164;2023-03-31T04:09:09;9.20;9.20;4.00
77413;PMS7003;66486;49.992;19.164;2023-03-31T04:11:35;15.40;15.40;10.80
77413;PMS7003;66486;49.992;19.164;2023-03-31T04:14:01;15.00;15.00;12.00
77413;PMS7003;66486;49.992;19.164;2023-03-31T04:16:27;15.40;15.40;9.80
77413;PMS7003;66486;49.992;19.164;2023-03-31T04:18:53;15.00;15.00;10.50
77413;PMS7003;66486;49.992;19.164;2023-03-31T04:21:21;29.20;27.60;21.40
77413;PMS7003;66486;49.992;19.164;2023-03-31T04:23:49;21.00;19.40;14.60
77413;PMS7003;66486;49.992;19.164;2023-03-31T04:26:24;13.80;13.00;9.40
77413;PMS7003;66486;49.992;19.164;2023-03-31T04:28:56;25.80;21.80;13.00
77413;PMS7003;66486;49.992;19.164;2023-03-31T04:31:26;19.80;17.60;10.80
77413;PMS7003;66486;49.992;19.164;2023-03-31T04:33:55;17.00;15.75;11.00
77413;PMS7003;66486;49.992;19.164;2023-03-31T04:36:25;22.00;21.20;16.00
77413;PMS7003;66486;49.992;19.164;2023-03-31T04:38:53;16.80;15.80;10.00
77413;PMS7003;66486;49.992;19.164;2023-03-31T04:41:19;14.60;14.60;11.20
77413;PMS7003;66486;49.992;19.164;2023-03-31T04:43:46;9.20;9.20;6.60
77413;PMS7003;66486;49.992;19.164;2023-03-31T04:46:12;20.60;20.60;10.40
77413;PMS7003;66486;49.992;19.164;2023-03-31T04:48:38;28.00;24.20;15.00
77413;PMS7003;66486;49.992;19.164;2023-03-31T04:51:05;19.20;17.60;9.40
77413;PMS7003;66486;49.992;19.164;2023-03-31T04:53:31;24.40;23.20;16.40
77413;PMS7003;66486;49.992;19.164;2023-03-31T04:55:57;25.00;24.40;15.20
77413;PMS7003;66486;49.992;19.164;2023-03-31T04:58:23;27.25;25.00;12.00
77413;PMS7003;66486;49.992;19.164;2023-03-31T05:00:50;32.20;30.00;18.40
77413;PMS7003;66486;49.992;19.164;2023-03-31T05:03:16;22.20;21.40;15.80
77413;PMS7003;66486;49.992;19.164;2023-03-31T05:05:43;29.60;26.60;16.20
77413;PMS7003;66486;49.992;19.164;2023-03-31T05:08:09;20.50;20.00;13.00
77413;PMS7003;66486;49.992;19.164;2023-03-31T05:10:35;33.00;29.60;16.00
77413;PMS7003;66486;49.992;19.164;2023-03-31T05:13:01;27.25;26.75;16.25
77413;PMS7003;66486;49.992;19.164;2023-03-31T05:15:27;23.20;21.00;15.40
77413;PMS7003;66486;49.992;19.164;2023-03-31T05:17:53;26.75;22.75;15.50
77413;PMS7003;66486;49.992;19.164;2023-03-31T05:20:19;20.80;19.80;13.80
77413;PMS7003;66486;49.992;19.164;2023-03-31T05:22:46;19.00;18.20;12.60
77413;PMS7003;66486;49.992;19.164;2023-03-31T05:25:13;24.80;22.80;16.60
77413;PMS7003;66486;49.992;19.164;2023-03-31T05:27:45;56.60;46.80;29.20
77413;PMS7003;66486;49.992;19.164;2023-03-31T05:30:13;23.00;21.40;16.40
77413;PMS7003;66486;49.992;19.164;2023-03-31T05:32:40;30.20;29.40;19.00
77413;PMS7003;66486;49.992;19.164;2023-03-31T05:35:06;32.60;32.40;20.60
77413;PMS7003;66486;49.992;19.164;2023-03-31T05:37:33;27.40;25.40;16.00
77413;PMS7003;66486;49.992;19.164;2023-03-31T05:39:59;21.60;19.20;13.80
77413;PMS7003;66486;49.992;19.164;2023-03-31T05:42:25;24.00;21.00;14.00
77413;PMS7003;66486;49.992;19.164;2023-03-31T05:44:51;26.20;24.60;15.60
77413;PMS7003;66486;49.992;19.164;2023-03-31T05:47:17;18.00;18.00;12.25
77413;PMS7003;66486;49.992;19.164;2023-03-31T05:49:43;9.40;9.40;6.80
77413;PMS7003;66486;49.992;19.164;2023-03-31T05:52:10;17.20;17.20;11.60
77413;PMS7003;66486;49.992;19.164;2023-03-31T05:54:37;18.40;18.40;13.00
77413;PMS7003;66486;49.992;19.164;2023-03-31T05:57:03;27.75;24.25;15.00
77413;PMS7003;66486;49.992;19.164;2023-03-31T05:59:29;15.40;15.40;11.20
77413;PMS7003;66486;49.992;19.164;2023-03-31T06:01:55;21.75;21.25;17.50
77413;PMS7003;66486;49.992;19.164;2023-03-31T06:04:21;11.40;10.80;7.00
77413;PMS7003;66486;49.992;19.164;2023-03-31T06:06:48;9.40;9.40;7.80
77413;PMS7003;66486;49.992;19.164;2023-03-31T06:09:15;10.00;9.00;7.00
77413;PMS7003;66486;49.992;19.164;2023-03-31T06:11:42;12.60;11.20;7.80
77413;PMS7003;66486;49.992;19.164;2023-03-31T06:14:08;14.20;12.60;9.80
77413;PMS7003;66486;49.992;19.164;2023-03-31T06:16:34;9.40;9.40;7.80
77413;PMS7003;66486;49.992;19.164;2023-03-31T06:19:00;12.40;9.80;8.20
77413;PMS7003;66486;49.992;19.164;2023-03-31T06:21:26;7.00;7.00;3.25
77413;PMS7003;66486;49.992;19.164;2023-03-31T06:23:52;7.00;7.00;4.00
77413;PMS7003;66486;49.992;19.164;2023-03-31T06:26:20;12.00;12.00;10.00
77413;PMS7003;66486;49.992;19.164;2023-03-31T06:28:47;15.60;15.60;12.00
77413;PMS7003;66486;49.992;19.164;2023-03-31T06:31:14;13.40;13.40;8.60
77413;PMS7003;66486;49.992;19.164;2023-03-31T06:33:42;10.00;9.20;7.40
77413;PMS7003;66486;49.992;19.164;2023-03-31T06:36:09;12.00;10.00;6.80
77413;PMS7003;66486;49.992;19.164;2023-03-31T06:38:37;8.20;8.20;6.60
77413;PMS7003;66486;49.992;19.164;2023-03-31T06:41:03;7.60;7.00;6.00
77413;PMS7003;66486;49.992;19.164;2023-03-31T06:43:31;4.60;4.60;4.20
77413;PMS7003;66486;49.992;19.164;2023-03-31T06:45:57;8.60;8.60;6.00
77413;PMS7003;66486;49.992;19.164;2023-03-31T06:48:23;7.80;7.80;6.00
77413;PMS7003;66486;49.992;19.164;2023-03-31T06:50:50;8.00;6.80;6.00
77413;PMS7003;66486;49.992;19.164;2023-03-31T06:53:17;7.00;7.00;6.00
77413;PMS7003;66486;49.992;19.164;2023-03-31T06:55:43;5.00;5.00;4.00
77413;PMS7003;66486;49.992;19.164;2023-03-31T06:58:10;3.20;3.20;3.00
77413;PMS7003;66486;49.992;19.164;2023-03-31T07:00:36;6.60;5.00;2.80
77413;PMS7003;66486;49.992;19.164;2023-03-31T07:03:03;6.20;6.20;4.00
77413;PMS7003;66486;49.992;19.164;2023-03-31T07:05:29;5.60;5.60;4.20
77413;PMS7003;66486;49.992;19.164;2023-03-31T07:07:57;6.20;5.40;4.60
77413;PMS7003;66486;49.992;19.164;2023-03-31T07:10:25;8.00;7.20;4.40
77413;PMS7003;66486;49.992;19.164;2023-03-31T07:12:53;4.00;4.00;2.40
77413;PMS7003;66486;49.992;19.164;2023-03-31T07:15:19;5.20;5.20;4.00
77413;PMS7003;66486;49.992;19.164;2023-03-31T07:17:46;7.00;5.20;4.00
77413;PMS7003;66486;49.992;19.164;2023-03-31T07:20:15;7.20;7.20;7.00
77413;PMS7003;66486;49.992;19.164;2023-03-31T07:22:44;8.20;5.80;4.20
77413;PMS7003;66486;49.992;19.164;2023-03-31T07:25:12;4.00;4.00;2.00
77413;PMS7003;66486;49.992;19.164;2023-03-31T07:27:40;5.00;4.80;4.20
77413;PMS7003;66486;49.992;19.164;2023-03-31T07:30:08;4.20;4.00;2.00
77413;PMS7003;66486;49.992;19.164;2023-03-31T07:32:35;4.00;4.00;2.00
77413;PMS7003;66486;49.992;19.164;2023-03-31T07:35:06;4.40;4.40;4.00
77413;PMS7003;66486;49.992;19.164;2023-03-31T07:37:36;3.60;3.60;2.40
77413;PMS7003;66486;49.992;19.164;2023-03-31T07:40:08;3.20;3.20;3.20
77413;PMS7003;66486;49.992;19.164;2023-03-31T07:42:37;4.80;4.80;4.60
77413;PMS7003;66486;49.992;19.164;2023-03-31T07:45:03;1.60;1.60;1.40
77413;PMS7003;66486;49.992;19.164;2023-03-31T07:47:31;2.00;2.00;1.20
77413;PMS7003;66486;49.992;19.164;2023-03-31T07:49:57;4.00;4.00;3.60
77413;PMS7003;66486;49.992;19.164;2023-03-31T07:52:23;2.00;2.00;1.80
77413;PMS7003;66486;49.992;19.164;2023-03-31T07:54:49;2.50;2.50;2.00
77413;PMS7003;66486;49.992;19.164;2023-03-31T07:57:15;1.20;1.20;1.00
77413;PMS7003;66486;49.992;19.164;2023-03-31T07:59:43;4.40;2.40;2.00
77413;PMS7003;66486;49.992;19.164;2023-03-31T08:02:13;2.00;2.00;2.00
77413;PMS7003;66486;49.992;19.164;2023-03-31T08:04:41;3.20;3.20;2.80
77413;PMS7003;66486;49.992;19.164;2023-03-31T08:07:11;2.80;2.80;2.00
77413;PMS7003;66486;49.992;19.164;2023-03-31T08:09:37;2.40;2.40;2.00
77413;PMS7003;66486;49.992;19.164;2023-03-31T08:12:05;4.40;4.40;3.20
77413;PMS7003;66486;49.992;19.164;2023-03-31T08:14:31;4.20;4.20;4.00
77413;PMS7003;66486;49.992;19.164;2023-03-31T08:16:58;2.40;2.40;2.00
77413;PMS7003;66486;49.992;19.164;2023-03-31T08:19:25;3.60;3.60;2.00
77413;PMS7003;66486;49.992;19.164;2023-03-31T08:21:52;2.00;2.00;2.00
77413;PMS7003;66486;49.992;19.164;2023-03-31T08:24:18;2.00;2.00;1.60
77413;PMS7003;66486;49.992;19.164;2023-03-31T08:26:45;0.20;0.20;0.00
77413;PMS7003;66486;49.992;19.164;2023-03-31T08:29:11;2.00;2.00;1.75
77413;PMS7003;66486;49.992;19.164;2023-03-31T08:31:38;1.75;1.75;1.00
77413;PMS7003;66486;49.992;19.164;2023-03-31T08:34:04;5.00;4.25;4.00
77413;PMS7003;66486;49.992;19.164;2023-03-31T08:36:31;2.00;2.00;1.75
77413;PMS7003;66486;49.992;19.164;2023-03-31T08:38:57;2.50;2.00;1.75
77413;PMS7003;66486;49.992;19.164;2023-03-31T08:44:10;2.50;2.50;2.50
77413;PMS7003;66486;49.992;19.164;2023-03-31T08:46:41;3.50;3.50;2.00
77413;PMS7003;66486;49.992;19.164;2023-03-31T08:49:11;1.50;1.50;1.25
77413;PMS7003;66486;49.992;19.164;2023-03-31T08:51:42;5.25;4.50;4.00
77413;PMS7003;66486;49.992;19.164;2023-03-31T08:54:29;5.75;4.75;4.50
77413;PMS7003;66486;49.992;19.164;2023-03-31T08:56:58;4.00;4.00;4.00
77413;PMS7003;66486;49.992;19.164;2023-03-31T08:59:26;8.00;6.25;5.00
77413;PMS7003;66486;49.992;19.164;2023-03-31T09:01:58;6.25;6.25;4.75
77413;PMS7003;66486;49.992;19.164;2023-03-31T09:09:45;10.25;10.25;6.75
77413;PMS7003;66486;49.992;19.164;2023-03-31T09:12:15;5.25;5.00;4.00
77413;PMS7003;66486;49.992;19.164;2023-03-31T09:17:33;3.25;2.75;2.00
77413;PMS7003;66486;49.992;19.164;2023-03-31T09:20:15;5.50;5.50;4.50
77413;PMS7003;66486;49.992;19.164;2023-03-31T09:25:44;5.00;5.00;5.00
77413;PMS7003;66486;49.992;19.164;2023-03-31T09:28:21;4.50;4.50;2.75
77413;PMS7003;66486;49.992;19.164;2023-03-31T09:30:52;3.00;3.00;3.00
77413;PMS7003;66486;49.992;19.164;2023-03-31T09:33:26;6.25;5.75;5.00
77413;PMS7003;66486;49.992;19.164;2023-03-31T09:36:00;7.00;6.50;6.00
77413;PMS7003;66486;49.992;19.164;2023-03-31T09:38:27;0.00;0.00;0.00
77413;PMS7003;66486;49.992;19.164;2023-03-31T09:40:56;5.00;5.00;4.00
77413;PMS7003;66486;49.992;19.164;2023-03-31T09:43:23;5.50;2.75;2.75
77413;PMS7003;66486;49.992;19.164;2023-03-31T09:45:52;4.50;4.50;3.00
77413;PMS7003;66486;49.992;19.164;2023-03-31T09:48:19;6.25;5.00;3.00
77413;PMS7003;66486;49.992;19.164;2023-03-31T09:50:52;5.75;5.75;5.25
77413;PMS7003;66486;49.992;19.164;2023-03-31T09:56:10;4.50;4.50;3.00
77413;PMS7003;66486;49.992;19.164;2023-03-31T09:58:41;7.00;6.00;3.00
77413;PMS7003;66486;49.992;19.164;2023-03-31T10:01:09;5.00;5.00;3.00
77413;PMS7003;66486;49.992;19.164;2023-03-31T10:03:45;3.00;3.00;3.00
77413;PMS7003;66486;49.992;19.164;2023-03-31T10:06:13;2.25;2.25;2.00
77413;PMS7003;66486;49.992;19.164;2023-03-31T10:08:46;2.25;2.25;2.25
77413;PMS7003;66486;49.992;19.164;2023-03-31T10:11:16;2.50;2.50;2.00
77413;PMS7003;66486;49.992;19.164;2023-03-31T10:16:27;1.50;1.50;1.00
77413;PMS7003;66486;49.992;19.164;2023-03-31T10:18:55;5.25;5.25;3.50
77413;PMS7003;66486;49.992;19.164;2023-03-31T10:21:37;6.00;5.00;3.00
77413;PMS7003;66486;49.992;19.164;2023-03-31T10:24:07;5.00;5.00;2.00
77413;PMS7003;66486;49.992;19.164;2023-03-31T10:26:35;3.50;3.50;3.00
77413;PMS7003;66486;49.992;19.164;2023-03-31T10:29:02;5.50;5.50;5.00
77413;PMS7003;66486;49.992;19.164;2023-03-31T10:31:37;6.75;6.75;6.00
77413;PMS7003;66486;49.992;19.164;2023-03-31T10:34:07;5.50;5.50;5.00
77413;PMS7003;66486;49.992;19.164;2023-03-31T10:36:44;6.50;5.75;5.00
77413;PMS7003;66486;49.992;19.164;2023-03-31T10:39:13;5.75;5.75;4.50
77413;PMS7003;66486;49.992;19.164;2023-03-31T10:41:41;5.25;5.00;5.00
77413;PMS7003;66486;49.992;19.164;2023-03-31T10:44:10;5.75;5.75;5.00
77413;PMS7003;66486;49.992;19.164;2023-03-31T10:47:04;4.50;4.50;3.00
77413;PMS7003;66486;49.992;19.164;2023-03-31T10:49:44;5.00;5.00;4.50
77413;PMS7003;66486;49.992;19.164;2023-03-31T10:52:17;2.50;2.50;1.50
77413;PMS7003;66486;49.992;19.164;2023-03-31T10:54:49;7.00;6.00;4.50
77413;PMS7003;66486;49.992;19.164;2023-03-31T11:00:24;2.00;2.00;1.00
77413;PMS7003;66486;49.992;19.164;2023-03-31T11:11:51;5.00;5.00;3.00
77413;PMS7003;66486;49.992;19.164;2023-03-31T11:14:23;5.25;3.00;2.00
77413;PMS7003;66486;49.992;19.164;2023-03-31T11:17:18;3.50;3.50;3.00
77413;PMS7003;66486;49.992;19.164;2023-03-31T11:27:58;10.00;10.00;6.00
77413;PMS7003;66486;49.992;19.164;2023-03-31T11:33:27;9.25;9.25;6.25
77413;PMS7003;66486;49.992;19.164;2023-03-31T11:36:15;5.00;4.00;3.00
77413;PMS7003;66486;49.992;19.164;2023-03-31T11:41:35;4.00;3.50;3.50
77413;PMS7003;66486;49.992;19.164;2023-03-31T11:44:23;5.25;5.25;5.00
77413;PMS7003;66486;49.992;19.164;2023-03-31T11:47:07;4.00;2.75;2.75
77413;PMS7003;66486;49.992;19.164;2023-03-31T11:49:43;2.75;2.75;2.00
77413;PMS7003;66486;49.992;19.164;2023-03-31T11:57:47;2.75;2.75;2.00
77413;PMS7003;66486;49.992;19.164;2023-03-31T12:02:47;3.50;3.50;2.25
77413;PMS7003;66486;49.992;19.164;2023-03-31T12:05:18;3.00;2.50;2.00
77413;PMS7003;66486;49.992;19.164;2023-03-31T12:07:50;7.25;6.75;5.50
77413;PMS7003;66486;49.992;19.164;2023-03-31T12:10:33;6.00;6.00;5.00
77413;PMS7003;66486;49.992;19.164;2023-03-31T12:16:21;7.50;6.50;5.00
77413;PMS7003;66486;49.992;19.164;2023-03-31T12:19:08;5.00;5.00;5.00
77413;PMS7003;66486;49.992;19.164;2023-03-31T12:21:57;3.00;3.00;2.67
77413;PMS7003;66486;49.992;19.164;2023-03-31T12:24:31;6.50;6.00;5.00
77413;PMS7003;66486;49.992;19.164;2023-03-31T12:27:04;7.25;7.25;5.50
77413;PMS7003;66486;49.992;19.164;2023-03-31T12:29:38;4.00;2.50;2.00
77413;PMS7003;66486;49.992;19.164;2023-03-31T12:32:11;1.00;1.00;1.00
77413;PMS7003;66486;49.992;19.164;2023-03-31T12:34:52;5.00;4.50;2.50
77413;PMS7003;66486;49.992;19.164;2023-03-31T12:39:54;1.50;1.50;1.00
77413;PMS7003;66486;49.992;19.164;2023-03-31T12:45:16;1.50;1.50;1.00
77413;PMS7003;66486;49.992;19.164;2023-03-31T12:59:37;1.25;1.00;0.50
77413;PMS7003;66486;49.992;19.164;2023-03-31T13:04:43;0.75;0.75;0.50
77413;PMS7003;66486;49.992;19.164;2023-03-31T13:07:13;2.00;2.00;1.25
77413;PMS7003;66486;49.992;19.164;2023-03-31T13:15:49;2.00;1.00;1.00
77413;PMS7003;66486;49.992;19.164;2023-03-31T13:18:17;2.25;2.25;2.00
77413;PMS7003;66486;49.992;19.164;2023-03-31T13:20:45;0.50;0.50;0.25
77413;PMS7003;66486;49.992;19.164;2023-03-31T13:23:18;2.00;2.00;1.75
77413;PMS7003;66486;49.992;19.164;2023-03-31T13:25:49;2.50;2.00;2.00
77413;PMS7003;66486;49.992;19.164;2023-03-31T13:28:17;3.00;2.25;2.00
77413;PMS7003;66486;49.992;19.164;2023-03-31T13:31:03;1.00;1.00;1.00
77413;PMS7003;66486;49.992;19.164;2023-03-31T13:36:27;1.00;1.00;0.75
77413;PMS7003;66486;49.992;19.164;2023-03-31T14:04:58;1.00;1.00;1.00
77413;PMS7003;66486;49.992;19.164;2023-03-31T14:08:09;3.00;3.00;2.00
77413;PMS7003;66486;49.992;19.164;2023-03-31T14:10:44;1.00;1.00;0.50
77413;PMS7003;66486;49.992;19.164;2023-03-31T14:13:17;2.00;2.00;2.00
77413;PMS7003;66486;49.992;19.164;2023-03-31T14:18:21;2.25;1.50;1.00
77413;PMS7003;66486;49.992;19.164;2023-03-31T14:23:35;4.00;4.00;2.00
77413;PMS7003;66486;49.992;19.164;2023-03-31T14:32:18;4.00;4.00;2.00
77413;PMS7003;66486;49.992;19.164;2023-03-31T14:37:38;5.00;4.00;2.00
77413;PMS7003;66486;49.992;19.164;2023-03-31T14:40:05;3.50;3.50;2.00
77413;PMS7003;66486;49.992;19.164;2023-03-31T14:42:38;4.00;4.00;3.20
77413;PMS7003;66486;49.992;19.164;2023-03-31T14:45:15;6.50;5.00;4.00
77413;PMS7003;66486;49.992;19.164;2023-03-31T14:47:52;2.80;2.80;1.80
77413;PMS7003;66486;49.992;19.164;2023-03-31T14:50:47;2.80;2.80;2.00
77413;PMS7003;66486;49.992;19.164;2023-03-31T14:53:18;5.67;5.67;4.33
77413;PMS7003;66486;49.992;19.164;2023-03-31T14:55:48;4.50;4.00;2.00
77413;PMS7003;66486;49.992;19.164;2023-03-31T14:58:23;5.80;5.40;4.00
77413;PMS7003;66486;49.992;19.164;2023-03-31T15:00:53;11.80;11.80;7.60
77413;PMS7003;66486;49.992;19.164;2023-03-31T15:03:19;8.20;8.20;5.20
77413;PMS7003;66486;49.992;19.164;2023-03-31T15:05:46;5.75;5.00;4.00
77413;PMS7003;66486;49.992;19.164;2023-03-31T15:08:19;10.40;10.20;6.80
77413;PMS7003;66486;49.992;19.164;2023-03-31T15:10:57;9.20;9.20;5.40
77413;PMS7003;66486;49.992;19.164;2023-03-31T15:15:58;7.00;5.75;4.75
77413;PMS7003;66486;49.992;19.164;2023-03-31T15:18:25;9.00;8.80;5.20
77413;PMS7003;66486;49.992;19.164;2023-03-31T15:20:52;12.80;12.80;10.80
77413;PMS7003;66486;49.992;19.164;2023-03-31T15:26:00;4.80;4.80;3.20
77413;PMS7003;66486;49.992;19.164;2023-03-31T15:28:31;6.00;6.00;5.00
77413;PMS7003;66486;49.992;19.164;2023-03-31T15:31:03;10.60;6.40;4.80
77413;PMS7003;66486;49.992;19.164;2023-03-31T15:33:33;4.00;4.00;4.00
77413;PMS7003;66486;49.992;19.164;2023-03-31T15:36:01;8.00;6.50;5.00
77413;PMS7003;66486;49.992;19.164;2023-03-31T15:38:28;7.60;7.60;5.80
77413;PMS7003;66486;49.992;19.164;2023-03-31T15:40:56;5.50;5.00;4.00
77413;PMS7003;66486;49.992;19.164;2023-03-31T15:43:27;6.20;6.20;5.00
77413;PMS7003;66486;49.992;19.164;2023-03-31T15:46:08;5.00;5.00;2.00
77413;PMS7003;66486;49.992;19.164;2023-03-31T15:48:37;4.80;4.80;4.20
77413;PMS7003;66486;49.992;19.164;2023-03-31T15:51:18;8.40;8.00;5.20
77413;PMS7003;66486;49.992;19.164;2023-03-31T15:53:50;11.20;10.20;6.00
77413;PMS7003;66486;49.992;19.164;2023-03-31T15:56:28;10.00;8.80;6.00
77413;PMS7003;66486;49.992;19.164;2023-03-31T15:59:00;14.00;12.40;8.20
77413;PMS7003;66486;49.992;19.164;2023-03-31T16:01:33;12.00;11.00;7.60
77413;PMS7003;66486;49.992;19.164;2023-03-31T16:04:11;13.60;12.40;8.40
77413;PMS7003;66486;49.992;19.164;2023-03-31T16:17:09;9.00;9.00;6.00
77413;PMS7003;66486;49.992;19.164;2023-03-31T16:19:44;12.40;9.80;8.00
77413;PMS7003;66486;49.992;19.164;2023-03-31T16:22:18;9.60;9.60;8.60
77413;PMS7003;66486;49.992;19.164;2023-03-31T16:24:47;9.00;8.80;6.40
77413;PMS7003;66486;49.992;19.164;2023-03-31T16:27:14;15.20;12.20;8.60
77413;PMS7003;66486;49.992;19.164;2023-03-31T16:29:40;13.40;11.60;8.60
77413;PMS7003;66486;49.992;19.164;2023-03-31T16:32:08;9.00;8.20;5.00
77413;PMS7003;66486;49.992;19.164;2023-03-31T16:34:52;12.60;11.80;8.00
77413;PMS7003;66486;49.992;19.164;2023-03-31T16:37:21;9.40;9.00;7.20
77413;PMS7003;66486;49.992;19.164;2023-03-31T16:39:48;12.40;12.40;9.00
77413;PMS7003;66486;49.992;19.164;2023-03-31T16:42:15;16.60;15.40;11.80
77413;PMS7003;66486;49.992;19.164;2023-03-31T16:44:41;15.40;15.00;10.00
77413;PMS7003;66486;49.992;19.164;2023-03-31T16:47:07;16.40;16.40;11.40
77413;PMS7003;66486;49.992;19.164;2023-03-31T16:49:33;13.00;13.00;10.00
77413;PMS7003;66486;49.992;19.164;2023-03-31T16:52:00;11.80;11.00;8.00
77413;PMS7003;66486;49.992;19.164;2023-03-31T16:54:26;8.60;8.60;6.20
77413;PMS7003;66486;49.992;19.164;2023-03-31T16:56:52;8.20;8.20;6.40
77413;PMS7003;66486;49.992;19.164;2023-03-31T16:59:18;14.25;14.25;10.50
77413;PMS7003;66486;49.992;19.164;2023-03-31T17:01:44;15.00;14.80;10.60
77413;PMS7003;66486;49.992;19.164;2023-03-31T17:04:10;9.80;9.80;6.20
77413;PMS7003;66486;49.992;19.164;2023-03-31T17:06:37;13.20;13.20;8.60
77413;PMS7003;66486;49.992;19.164;2023-03-31T17:09:03;13.20;11.60;9.00
77413;PMS7003;66486;49.992;19.164;2023-03-31T17:11:30;10.60;10.60;6.20
77413;PMS7003;66486;49.992;19.164;2023-03-31T17:13:56;14.00;13.00;10.20
77413;PMS7003;66486;49.992;19.164;2023-03-31T17:16:25;14.00;14.00;11.40
77413;PMS7003;66486;49.992;19.164;2023-03-31T17:18:51;12.20;12.00;9.00
77413;PMS7003;66486;49.992;19.164;2023-03-31T17:21:18;16.40;16.40;11.20
77413;PMS7003;66486;49.992;19.164;2023-03-31T17:23:44;22.00;20.40;14.40